sensor_id;sensor_type;location;lat;lon;timestamp;pressure;altitude;pressure_sealevel;temperature;humidity
40872;BME280;26591;43.264;26.940;2022-09-16T00:00:30;98134.13;;;24.71;47.46
40872;BME280;26591;43.264;26.940;2022-09-16T00:02:56;98137.97;;;24.70;47.98
40872;BME280;26591;43.264;26.940;2022-09-16T00:05:23;98130.78;;;24.45;48.31
40872;BME280;26591;43.264;26.940;2022-09-16T00:07:49;98132.84;;;24.08;48.75
40872;BME280;26591;43.264;26.940;2022-09-16T00:10:15;98132.03;;;24.13;48.66
40872;BME280;26591;43.264;26.940;2022-09-16T00:12:41;98130.03;;;24.34;48.89
40872;BME280;26591;43.264;26.940;2022-09-16T00:15:07;98136.13;;;24.50;48.01
40872;BME280;26591;43.264;26.940;2022-09-16T00:17:33;98131.81;;;24.49;48.12
40872;BME280;26591;43.264;26.940;2022-09-16T00:19:59;98133.97;;;24.52;48.44
40872;BME280;26591;43.264;26.940;2022-09-16T00:22:26;98139.34;;;24.57;48.12
40872;BME280;26591;43.264;26.940;2022-09-16T00:24:52;98128.28;;;24.53;49.15
40872;BME280;26591;43.264;26.940;2022-09-16T00:27:18;98123.16;;;24.52;48.48
40872;BME280;26591;43.264;26.940;2022-09-16T00:29:43;98125.06;;;24.51;48.74
40872;BME280;26591;43.264;26.940;2022-09-16T00:32:09;98120.44;;;24.52;49.07
40872;BME280;26591;43.264;26.940;2022-09-16T00:34:35;98117.72;;;24.57;47.93
40872;BME280;26591;43.264;26.940;2022-09-16T00:37:00;98120.41;;;24.57;48.85
40872;BME280;26591;43.264;26.940;2022-09-16T00:39:28;98121.75;;;24.60;48.27
40872;BME280;26591;43.264;26.940;2022-09-16T00:41:54;98127.13;;;24.65;47.45
40872;BME280;26591;43.264;26.940;2022-09-16T00:44:55;98131.09;;;24.38;47.95
40872;BME280;26591;43.264;26.940;2022-09-16T00:49:48;98126.78;;;24.32;48.29
40872;BME280;26591;43.264;26.940;2022-09-16T00:52:15;98126.25;;;24.35;48.53
40872;BME280;26591;43.264;26.940;2022-09-16T00:54:42;98127.25;;;24.44;47.46
40872;BME280;26591;43.264;26.940;2022-09-16T00:57:10;98127.06;;;24.30;48.02
40872;BME280;26591;43.264;26.940;2022-09-16T00:59:46;98123.31;;;24.26;48.63
40872;BME280;26591;43.264;26.940;2022-09-16T01:02:15;98126.00;;;24.26;49.17
40872;BME280;26591;43.264;26.940;2022-09-16T01:04:53;98124.69;;;24.23;49.34
40872;BME280;26591;43.264;26.940;2022-09-16T01:07:35;98124.09;;;24.27;48.52
40872;BME280;26591;43.264;26.940;2022-09-16T01:10:03;98126.72;;;24.42;48.63
40872;BME280;26591;43.264;26.940;2022-09-16T01:12:30;98121.81;;;24.55;49.24
40872;BME280;26591;43.264;26.940;2022-09-16T01:14:57;98122.00;;;24.63;49.23
40872;BME280;26591;43.264;26.940;2022-09-16T01:23:10;98121.97;;;24.74;49.17
40872;BME280;26591;43.264;26.940;2022-09-16T01:34:46;98114.59;;;25.14;47.60
40872;BME280;26591;43.264;26.940;2022-09-16T01:37:17;98110.69;;;25.25;47.36
40872;BME280;26591;43.264;26.940;2022-09-16T01:42:53;98121.66;;;25.39;46.73
40872;BME280;26591;43.264;26.940;2022-09-16T01:53:36;98131.38;;;25.46;47.18
40872;BME280;26591;43.264;26.940;2022-09-16T01:58:57;98126.56;;;25.42;46.47
40872;BME280;26591;43.264;26.940;2022-09-16T02:01:35;98123.03;;;25.42;46.72
40872;BME280;26591;43.264;26.940;2022-09-16T02:04:09;98126.47;;;25.18;46.97
40872;BME280;26591;43.264;26.940;2022-09-16T02:06:37;98127.84;;;25.16;46.81
40872;BME280;26591;43.264;26.940;2022-09-16T02:09:18;98133.19;;;25.26;46.93
40872;BME280;26591;43.264;26.940;2022-09-16T02:11:46;98131.50;;;25.30;46.31
40872;BME280;26591;43.264;26.940;2022-09-16T02:14:21;98130.72;;;25.24;46.65
40872;BME280;26591;43.264;26.940;2022-09-16T02:19:19;98140.22;;;25.27;46.16
40872;BME280;26591;43.264;26.940;2022-09-16T02:21:49;98125.59;;;25.28;46.18
40872;BME280;26591;43.264;26.940;2022-09-16T02:24:18;98131.16;;;25.37;46.51
40872;BME280;26591;43.264;26.940;2022-09-16T02:26:53;98139.28;;;25.42;46.09
40872;BME280;26591;43.264;26.940;2022-09-16T02:29:22;98126.94;;;25.25;46.86
40872;BME280;26591;43.264;26.940;2022-09-16T02:31:53;98126.66;;;25.27;47.12
40872;BME280;26591;43.264;26.940;2022-09-16T02:34:27;98125.84;;;25.26;46.79
40872;BME280;26591;43.264;26.940;2022-09-16T02:37:00;98123.78;;;25.18;45.91
40872;BME280;26591;43.264;26.940;2022-09-16T02:39:29;98127.06;;;25.10;46.58
40872;BME280;26591;43.264;26.940;2022-09-16T02:41:58;98122.28;;;25.02;46.42
40872;BME280;26591;43.264;26.940;2022-09-16T02:44:24;98132.75;;;25.13;46.89
40872;BME280;26591;43.264;26.940;2022-09-16T02:47:06;98138.34;;;25.22;46.39
40872;BME280;26591;43.264;26.940;2022-09-16T02:49:42;98136.16;;;25.24;47.19
40872;BME280;26591;43.264;26.940;2022-09-16T02:55:03;98131.66;;;25.14;46.98
40872;BME280;26591;43.264;26.940;2022-09-16T02:57:32;98126.53;;;25.08;46.95
40872;BME280;26591;43.264;26.940;2022-09-16T02:59:58;98127.56;;;25.17;47.42
40872;BME280;26591;43.264;26.940;2022-09-16T03:02:24;98127.16;;;24.99;47.85
40872;BME280;26591;43.264;26.940;2022-09-16T03:04:49;98138.66;;;24.86;47.62
40872;BME280;26591;43.264;26.940;2022-09-16T03:07:15;98131.94;;;24.78;48.65
40872;BME280;26591;43.264;26.940;2022-09-16T03:09:44;98133.88;;;24.73;48.22
40872;BME280;26591;43.264;26.940;2022-09-16T03:16:07;98137.97;;;24.60;48.91
40872;BME280;26591;43.264;26.940;2022-09-16T03:23:07;98138.34;;;24.48;48.97
40872;BME280;26591;43.264;26.940;2022-09-16T03:26:03;98144.94;;;24.26;49.28
40872;BME280;26591;43.264;26.940;2022-09-16T03:28:42;98150.16;;;24.02;50.07
40872;BME280;26591;43.264;26.940;2022-09-16T03:31:18;98144.38;;;24.29;49.42
40872;BME280;26591;43.264;26.940;2022-09-16T03:36:28;98156.91;;;24.10;50.71
40872;BME280;26591;43.264;26.940;2022-09-16T03:38:59;98159.88;;;24.08;50.78
40872;BME280;26591;43.264;26.940;2022-09-16T03:41:28;98161.53;;;23.83;51.59
40872;BME280;26591;43.264;26.940;2022-09-16T03:43:56;98159.91;;;23.92;50.72
40872;BME280;26591;43.264;26.940;2022-09-16T03:46:22;98158.56;;;23.90;50.77
40872;BME280;26591;43.264;26.940;2022-09-16T03:48:49;98155.09;;;23.69;51.04
40872;BME280;26591;43.264;26.940;2022-09-16T03:51:15;98152.41;;;23.69;51.73
40872;BME280;26591;43.264;26.940;2022-09-16T03:53:41;98149.94;;;23.83;51.07
40872;BME280;26591;43.264;26.940;2022-09-16T03:56:06;98150.53;;;23.69;51.45
40872;BME280;26591;43.264;26.940;2022-09-16T03:58:32;98151.88;;;23.67;51.15
40872;BME280;26591;43.264;26.940;2022-09-16T04:00:57;98146.53;;;23.46;51.69
40872;BME280;26591;43.264;26.940;2022-09-16T04:03:23;98143.03;;;23.40;51.59
40872;BME280;26591;43.264;26.940;2022-09-16T04:05:52;98166.22;;;23.05;52.57
40872;BME280;26591;43.264;26.940;2022-09-16T04:08:18;98159.72;;;23.16;52.40
40872;BME280;26591;43.264;26.940;2022-09-16T04:10:58;98165.94;;;23.12;52.00
40872;BME280;26591;43.264;26.940;2022-09-16T04:13:24;98167.88;;;23.27;52.09
40872;BME280;26591;43.264;26.940;2022-09-16T04:15:50;98166.78;;;23.33;52.64
40872;BME280;26591;43.264;26.940;2022-09-16T04:18:16;98157.31;;;23.41;52.94
40872;BME280;26591;43.264;26.940;2022-09-16T04:20:42;98157.63;;;23.29;53.14
40872;BME280;26591;43.264;26.940;2022-09-16T04:23:08;98157.03;;;23.58;51.98
40872;BME280;26591;43.264;26.940;2022-09-16T04:25:33;98159.41;;;23.80;50.10
40872;BME280;26591;43.264;26.940;2022-09-16T04:27:59;98161.63;;;23.62;51.30
40872;BME280;26591;43.264;26.940;2022-09-16T04:30:25;98169.44;;;23.64;51.48
40872;BME280;26591;43.264;26.940;2022-09-16T04:32:55;98175.13;;;23.47;52.19
40872;BME280;26591;43.264;26.940;2022-09-16T04:35:21;98177.78;;;23.68;50.91
40872;BME280;26591;43.264;26.940;2022-09-16T04:37:47;98176.78;;;23.33;52.04
40872;BME280;26591;43.264;26.940;2022-09-16T04:40:13;98169.22;;;23.35;53.26
40872;BME280;26591;43.264;26.940;2022-09-16T04:42:38;98169.97;;;23.71;51.84
40872;BME280;26591;43.264;26.940;2022-09-16T04:45:04;98173.38;;;24.13;51.57
40872;BME280;26591;43.264;26.940;2022-09-16T04:47:30;98179.09;;;24.62;51.05
40872;BME280;26591;43.264;26.940;2022-09-16T04:49:56;98168.00;;;25.03;49.96
40872;BME280;26591;43.264;26.940;2022-09-16T04:52:22;98165.50;;;25.47;48.21
40872;BME280;26591;43.264;26.940;2022-09-16T04:54:48;98170.56;;;25.83;47.25
40872;BME280;26591;43.264;26.940;2022-09-16T04:57:15;98159.25;;;26.24;46.63
40872;BME280;26591;43.264;26.940;2022-09-16T04:59:42;98167.66;;;26.85;44.19
40872;BME280;26591;43.264;26.940;2022-09-16T05:02:08;98181.34;;;27.13;41.47
40872;BME280;26591;43.264;26.940;2022-09-16T05:04:33;98178.53;;;27.18;42.41
40872;BME280;26591;43.264;26.940;2022-09-16T05:06:59;98173.34;;;27.55;41.60
40872;BME280;26591;43.264;26.940;2022-09-16T05:09:24;98172.66;;;27.77;39.91
40872;BME280;26591;43.264;26.940;2022-09-16T05:11:50;98175.38;;;28.05;42.80
40872;BME280;26591;43.264;26.940;2022-09-16T05:14:17;98180.13;;;28.27;40.50
40872;BME280;26591;43.264;26.940;2022-09-16T05:16:44;98187.06;;;29.07;41.45
40872;BME280;26591;43.264;26.940;2022-09-16T05:19:11;98190.31;;;29.63;41.12
40872;BME280;26591;43.264;26.940;2022-09-16T05:21:38;98203.13;;;29.54;40.54
40872;BME280;26591;43.264;26.940;2022-09-16T05:24:06;98191.56;;;29.57;41.04
40872;BME280;26591;43.264;26.940;2022-09-16T05:26:34;98187.91;;;29.62;40.63
40872;BME280;26591;43.264;26.940;2022-09-16T05:29:05;98190.31;;;29.95;40.43
40872;BME280;26591;43.264;26.940;2022-09-16T05:31:35;98181.13;;;30.31;39.58
40872;BME280;26591;43.264;26.940;2022-09-16T05:34:06;98189.56;;;30.70;38.04
40872;BME280;26591;43.264;26.940;2022-09-16T05:36:35;98191.66;;;30.73;38.32
40872;BME280;26591;43.264;26.940;2022-09-16T05:39:03;98186.44;;;30.45;36.55
40872;BME280;26591;43.264;26.940;2022-09-16T05:41:28;98190.66;;;30.60;36.61
40872;BME280;26591;43.264;26.940;2022-09-16T05:43:57;98182.16;;;30.97;34.65
40872;BME280;26591;43.264;26.940;2022-09-16T05:46:23;98183.09;;;31.18;34.70
40872;BME280;26591;43.264;26.940;2022-09-16T05:48:49;98183.81;;;32.02;32.73
40872;BME280;26591;43.264;26.940;2022-09-16T05:51:17;98191.53;;;32.38;32.88
40872;BME280;26591;43.264;26.940;2022-09-16T05:53:44;98203.38;;;32.51;32.35
40872;BME280;26591;43.264;26.940;2022-09-16T05:56:20;98204.97;;;33.16;31.84
40872;BME280;26591;43.264;26.940;2022-09-16T05:58:47;98204.19;;;33.49;31.81
40872;BME280;26591;43.264;26.940;2022-09-16T06:01:15;98201.28;;;33.12;31.22
40872;BME280;26591;43.264;26.940;2022-09-16T06:03:42;98201.06;;;32.62;31.77
40872;BME280;26591;43.264;26.940;2022-09-16T06:08:46;98214.19;;;32.18;32.29
40872;BME280;26591;43.264;26.940;2022-09-16T06:11:12;98201.53;;;31.57;33.18
40872;BME280;26591;43.264;26.940;2022-09-16T06:13:38;98208.66;;;31.23;33.08
40872;BME280;26591;43.264;26.940;2022-09-16T06:16:05;98207.22;;;31.08;33.40
40872;BME280;26591;43.264;26.940;2022-09-16T06:18:31;98209.94;;;31.08;34.25
40872;BME280;26591;43.264;26.940;2022-09-16T06:21:01;98218.44;;;31.50;33.27
40872;BME280;26591;43.264;26.940;2022-09-16T06:23:27;98208.09;;;31.64;32.68
40872;BME280;26591;43.264;26.940;2022-09-16T06:26:04;98213.13;;;31.36;33.56
40872;BME280;26591;43.264;26.940;2022-09-16T06:28:30;98216.34;;;31.12;33.66
40872;BME280;26591;43.264;26.940;2022-09-16T06:33:34;98211.69;;;31.95;32.61
40872;BME280;26591;43.264;26.940;2022-09-16T06:36:14;98210.91;;;31.94;32.95
40872;BME280;26591;43.264;26.940;2022-09-16T06:38:42;98215.22;;;33.07;31.92
40872;BME280;26591;43.264;26.940;2022-09-16T06:41:10;98207.72;;;33.16;31.39
40872;BME280;26591;43.264;26.940;2022-09-16T06:43:36;98217.88;;;33.15;31.69
40872;BME280;26591;43.264;26.940;2022-09-16T06:46:05;98208.38;;;32.70;32.66
40872;BME280;26591;43.264;26.940;2022-09-16T06:48:32;98213.91;;;33.25;31.75
40872;BME280;26591;43.264;26.940;2022-09-16T06:51:10;98221.03;;;33.72;31.35
40872;BME280;26591;43.264;26.940;2022-09-16T06:53:36;98220.53;;;33.45;31.22
40872;BME280;26591;43.264;26.940;2022-09-16T06:56:07;98214.97;;;33.33;30.95
40872;BME280;26591;43.264;26.940;2022-09-16T06:58:36;98210.72;;;33.02;31.25
40872;BME280;26591;43.264;26.940;2022-09-16T07:01:06;98218.88;;;33.11;31.85
40872;BME280;26591;43.264;26.940;2022-09-16T07:03:33;98219.19;;;32.97;31.64
40872;BME280;26591;43.264;26.940;2022-09-16T07:06:01;98222.69;;;32.97;31.93
40872;BME280;26591;43.264;26.940;2022-09-16T07:08:28;98223.38;;;33.15;31.61
40872;BME280;26591;43.264;26.940;2022-09-16T07:10:58;98238.56;;;33.25;32.00
40872;BME280;26591;43.264;26.940;2022-09-16T07:13:25;98240.53;;;33.58;31.09
40872;BME280;26591;43.264;26.940;2022-09-16T07:15:51;98246.19;;;33.41;31.68
40872;BME280;26591;43.264;26.940;2022-09-16T07:18:17;98241.53;;;33.20;32.63
40872;BME280;26591;43.264;26.940;2022-09-16T07:20:43;98248.78;;;33.58;32.04
40872;BME280;26591;43.264;26.940;2022-09-16T07:23:08;98243.28;;;33.58;31.15
40872;BME280;26591;43.264;26.940;2022-09-16T07:25:34;98244.09;;;33.04;32.13
40872;BME280;26591;43.264;26.940;2022-09-16T07:28:00;98250.44;;;33.17;32.26
40872;BME280;26591;43.264;26.940;2022-09-16T07:30:26;98245.84;;;33.09;32.13
40872;BME280;26591;43.264;26.940;2022-09-16T07:32:54;98243.34;;;33.16;31.76
40872;BME280;26591;43.264;26.940;2022-09-16T07:35:20;98249.34;;;33.30;31.99
40872;BME280;26591;43.264;26.940;2022-09-16T07:37:46;98253.56;;;33.49;31.82
40872;BME280;26591;43.264;26.940;2022-09-16T07:40:12;98240.56;;;33.04;31.98
40872;BME280;26591;43.264;26.940;2022-09-16T07:42:38;98224.81;;;32.70;32.51
40872;BME280;26591;43.264;26.940;2022-09-16T07:45:04;98232.09;;;32.06;33.06
40872;BME280;26591;43.264;26.940;2022-09-16T07:47:30;98230.53;;;31.96;32.79
40872;BME280;26591;43.264;26.940;2022-09-16T07:49:56;98234.69;;;32.41;32.38
40872;BME280;26591;43.264;26.940;2022-09-16T07:52:22;98226.81;;;32.01;33.30
40872;BME280;26591;43.264;26.940;2022-09-16T07:54:54;98217.44;;;31.63;33.57
40872;BME280;26591;43.264;26.940;2022-09-16T07:57:20;98229.34;;;32.06;33.38
40872;BME280;26591;43.264;26.940;2022-09-16T07:59:47;98226.03;;;32.31;33.26
40872;BME280;26591;43.264;26.940;2022-09-16T08:02:13;98224.09;;;32.61;32.21
40872;BME280;26591;43.264;26.940;2022-09-16T08:04:39;98211.72;;;32.76;32.28
40872;BME280;26591;43.264;26.940;2022-09-16T08:07:05;98229.34;;;32.66;31.38
40872;BME280;26591;43.264;26.940;2022-09-16T08:09:31;98222.88;;;32.20;32.79
40872;BME280;26591;43.264;26.940;2022-09-16T08:11:58;98232.94;;;31.98;32.90
40872;BME280;26591;43.264;26.940;2022-09-16T08:14:25;98231.41;;;31.71;33.72
40872;BME280;26591;43.264;26.940;2022-09-16T08:16:51;98237.06;;;31.74;33.29
40872;BME280;26591;43.264;26.940;2022-09-16T08:19:17;98226.50;;;31.94;33.95
40872;BME280;26591;43.264;26.940;2022-09-16T08:21:43;98226.19;;;31.95;33.45
40872;BME280;26591;43.264;26.940;2022-09-16T08:24:09;98236.03;;;31.88;33.18
40872;BME280;26591;43.264;26.940;2022-09-16T08:26:35;98240.41;;;32.19;32.84
40872;BME280;26591;43.264;26.940;2022-09-16T08:29:00;98245.88;;;32.79;33.38
40872;BME280;26591;43.264;26.940;2022-09-16T08:31:26;98247.91;;;32.39;32.75
40872;BME280;26591;43.264;26.940;2022-09-16T08:33:52;98234.59;;;32.20;32.40
40872;BME280;26591;43.264;26.940;2022-09-16T08:36:23;98251.50;;;32.22;32.97
40872;BME280;26591;43.264;26.940;2022-09-16T08:38:50;98237.34;;;32.29;32.52
40872;BME280;26591;43.264;26.940;2022-09-16T08:47:00;98231.88;;;32.20;33.20
40872;BME280;26591;43.264;26.940;2022-09-16T08:49:42;98239.72;;;32.31;33.22
40872;BME280;26591;43.264;26.940;2022-09-16T08:54:48;98233.84;;;32.50;33.40
40872;BME280;26591;43.264;26.940;2022-09-16T08:57:20;98239.34;;;33.13;32.65
40872;BME280;26591;43.264;26.940;2022-09-16T09:00:02;98233.88;;;32.92;32.28
40872;BME280;26591;43.264;26.940;2022-09-16T09:05:18;98229.44;;;32.79;32.97
40872;BME280;26591;43.264;26.940;2022-09-16T09:15:39;98214.47;;;32.76;33.26
40872;BME280;26591;43.264;26.940;2022-09-16T09:37:14;98218.13;;;33.23;32.14
40872;BME280;26591;43.264;26.940;2022-09-16T09:42:51;98223.56;;;33.10;32.60
40872;BME280;26591;43.264;26.940;2022-09-16T09:45:30;98201.88;;;33.39;32.29
40872;BME280;26591;43.264;26.940;2022-09-16T09:50:48;98216.06;;;33.99;31.52
40872;BME280;26591;43.264;26.940;2022-09-16T09:53:24;98204.19;;;33.49;31.51
40872;BME280;26591;43.264;26.940;2022-09-16T09:58:50;98200.72;;;32.85;32.40
40872;BME280;26591;43.264;26.940;2022-09-16T10:01:19;98207.09;;;33.31;32.26
40872;BME280;26591;43.264;26.940;2022-09-16T10:03:47;98207.97;;;33.57;31.19
40872;BME280;26591;43.264;26.940;2022-09-16T10:06:13;98204.75;;;33.42;31.52
40872;BME280;26591;43.264;26.940;2022-09-16T10:08:45;98193.22;;;33.49;31.82
40872;BME280;26591;43.264;26.940;2022-09-16T10:11:30;98208.22;;;33.64;31.24
40872;BME280;26591;43.264;26.940;2022-09-16T10:14:00;98203.94;;;33.42;31.26
40872;BME280;26591;43.264;26.940;2022-09-16T10:16:33;98199.31;;;33.67;31.56
40872;BME280;26591;43.264;26.940;2022-09-16T10:19:04;98199.00;;;33.81;31.01
40872;BME280;26591;43.264;26.940;2022-09-16T10:21:42;98203.91;;;33.88;31.31
40872;BME280;26591;43.264;26.940;2022-09-16T10:26:57;98196.47;;;33.76;31.15
40872;BME280;26591;43.264;26.940;2022-09-16T10:29:22;98193.81;;;33.67;31.16
40872;BME280;26591;43.264;26.940;2022-09-16T10:31:48;98190.03;;;33.59;31.80
40872;BME280;26591;43.264;26.940;2022-09-16T10:34:26;98192.69;;;33.68;30.84
40872;BME280;26591;43.264;26.940;2022-09-16T10:37:03;98192.50;;;33.98;30.75
40872;BME280;26591;43.264;26.940;2022-09-16T10:39:55;98186.66;;;34.25;30.24
40872;BME280;26591;43.264;26.940;2022-09-16T10:42:27;98198.31;;;34.21;30.62
40872;BME280;26591;43.264;26.940;2022-09-16T10:45:13;98196.38;;;34.22;30.78
40872;BME280;26591;43.264;26.940;2022-09-16T10:47:40;98194.88;;;34.00;30.40
40872;BME280;26591;43.264;26.940;2022-09-16T10:50:06;98195.00;;;33.91;30.45
40872;BME280;26591;43.264;26.940;2022-09-16T10:52:44;98185.84;;;34.12;30.37
40872;BME280;26591;43.264;26.940;2022-09-16T10:55:30;98184.03;;;33.91;30.65
40872;BME280;26591;43.264;26.940;2022-09-16T10:58:16;98179.88;;;33.72;30.65
40872;BME280;26591;43.264;26.940;2022-09-16T11:12:27;98181.03;;;33.84;30.74
40872;BME280;26591;43.264;26.940;2022-09-16T11:17:49;98165.50;;;33.88;31.20
40872;BME280;26591;43.264;26.940;2022-09-16T11:20:43;98177.16;;;34.10;30.55
40872;BME280;26591;43.264;26.940;2022-09-16T11:26:10;98170.66;;;34.67;30.81
40872;BME280;26591;43.264;26.940;2022-09-16T11:45:25;98160.19;;;34.57;30.43
40872;BME280;26591;43.264;26.940;2022-09-16T11:56:17;98170.38;;;33.70;31.86
40872;BME280;26591;43.264;26.940;2022-09-16T11:59:21;98166.06;;;33.81;31.72
40872;BME280;26591;43.264;26.940;2022-09-16T12:04:25;98164.91;;;33.24;32.30
40872;BME280;26591;43.264;26.940;2022-09-16T12:07:08;98161.88;;;33.04;32.13
40872;BME280;26591;43.264;26.940;2022-09-16T12:09:40;98148.94;;;32.92;32.34
40872;BME280;26591;43.264;26.940;2022-09-16T12:12:30;98149.19;;;32.99;32.27
40872;BME280;26591;43.264;26.940;2022-09-16T12:15:04;98146.09;;;32.80;32.50
40872;BME280;26591;43.264;26.940;2022-09-16T12:17:37;98127.06;;;32.50;33.70
40872;BME280;26591;43.264;26.940;2022-09-16T12:20:12;98122.63;;;32.57;33.39
40872;BME280;26591;43.264;26.940;2022-09-16T12:22:43;98115.63;;;32.48;33.26
40872;BME280;26591;43.264;26.940;2022-09-16T12:25:20;98117.53;;;32.90;32.74
40872;BME280;26591;43.264;26.940;2022-09-16T12:28:01;98119.31;;;33.07;32.73
40872;BME280;26591;43.264;26.940;2022-09-16T12:30:36;98107.44;;;33.15;32.06
40872;BME280;26591;43.264;26.940;2022-09-16T12:33:21;98116.88;;;33.39;32.41
40872;BME280;26591;43.264;26.940;2022-09-16T12:36:21;98103.75;;;33.44;32.04
40872;BME280;26591;43.264;26.940;2022-09-16T12:38:48;98102.47;;;33.42;32.31
40872;BME280;26591;43.264;26.940;2022-09-16T12:55:40;98099.31;;;33.06;32.31
40872;BME280;26591;43.264;26.940;2022-09-16T13:01:31;98090.25;;;33.39;32.88
40872;BME280;26591;43.264;26.940;2022-09-16T13:06:45;98102.41;;;33.17;32.46
40872;BME280;26591;43.264;26.940;2022-09-16T13:11:55;98101.47;;;33.00;31.99
40872;BME280;26591;43.264;26.940;2022-09-16T13:14:26;98100.13;;;33.07;32.35
40872;BME280;26591;43.264;26.940;2022-09-16T13:16:58;98100.94;;;33.20;32.35
40872;BME280;26591;43.264;26.940;2022-09-16T13:24:38;98101.69;;;32.74;32.63
40872;BME280;26591;43.264;26.940;2022-09-16T13:27:30;98105.03;;;33.01;32.77
40872;BME280;26591;43.264;26.940;2022-09-16T13:37:44;98105.88;;;32.59;32.54
40872;BME280;26591;43.264;26.940;2022-09-16T13:40:24;98097.44;;;32.64;32.74
40872;BME280;26591;43.264;26.940;2022-09-16T13:43:02;98102.84;;;32.52;33.11
40872;BME280;26591;43.264;26.940;2022-09-16T13:45:32;98092.31;;;32.41;33.79
40872;BME280;26591;43.264;26.940;2022-09-16T13:48:09;98103.81;;;32.35;33.53
40872;BME280;26591;43.264;26.940;2022-09-16T13:50:36;98105.00;;;32.46;33.60
40872;BME280;26591;43.264;26.940;2022-09-16T13:53:19;98102.69;;;32.06;33.29
40872;BME280;26591;43.264;26.940;2022-09-16T13:55:46;98110.38;;;31.83;33.71
40872;BME280;26591;43.264;26.940;2022-09-16T13:58:26;98102.78;;;31.49;34.20
40872;BME280;26591;43.264;26.940;2022-09-16T14:01:15;98102.72;;;31.28;34.16
40872;BME280;26591;43.264;26.940;2022-09-16T14:03:59;98111.88;;;31.24;33.74
40872;BME280;26591;43.264;26.940;2022-09-16T14:14:42;98092.34;;;30.51;36.84
40872;BME280;26591;43.264;26.940;2022-09-16T14:17:21;98097.69;;;30.56;36.47
40872;BME280;26591;43.264;26.940;2022-09-16T14:19:47;98111.59;;;30.37;36.70
40872;BME280;26591;43.264;26.940;2022-09-16T14:22:17;98119.34;;;30.44;36.90
40872;BME280;26591;43.264;26.940;2022-09-16T14:24:44;98142.28;;;30.52;36.49
40872;BME280;26591;43.264;26.940;2022-09-16T14:30:00;98197.91;;;30.07;39.92
40872;BME280;26591;43.264;26.940;2022-09-16T14:32:34;98191.47;;;30.03;40.58
40872;BME280;26591;43.264;26.940;2022-09-16T14:35:09;98199.50;;;29.45;45.97
40872;BME280;26591;43.264;26.940;2022-09-16T14:37:37;98165.84;;;28.95;47.00
40872;BME280;26591;43.264;26.940;2022-09-16T14:40:08;98133.19;;;28.95;46.28
40872;BME280;26591;43.264;26.940;2022-09-16T14:42:38;98132.53;;;28.75;48.61
40872;BME280;26591;43.264;26.940;2022-09-16T14:45:13;98130.94;;;28.60;50.97
40872;BME280;26591;43.264;26.940;2022-09-16T14:47:41;98135.28;;;28.61;50.94
40872;BME280;26591;43.264;26.940;2022-09-16T14:50:15;98134.44;;;28.75;51.44
40872;BME280;26591;43.264;26.940;2022-09-16T14:52:52;98139.50;;;28.82;50.64
40872;BME280;26591;43.264;26.940;2022-09-16T14:55:20;98139.34;;;28.87;50.58
40872;BME280;26591;43.264;26.940;2022-09-16T14:57:46;98140.66;;;28.89;51.44
40872;BME280;26591;43.264;26.940;2022-09-16T15:00:15;98143.75;;;28.74;51.74
40872;BME280;26591;43.264;26.940;2022-09-16T15:05:30;98149.19;;;27.81;50.02
40872;BME280;26591;43.264;26.940;2022-09-16T15:08:41;98145.88;;;27.70;51.25
40872;BME280;26591;43.264;26.940;2022-09-16T15:11:11;98151.59;;;27.69;50.44
40872;BME280;26591;43.264;26.940;2022-09-16T15:13:38;98155.72;;;28.08;50.75
40872;BME280;26591;43.264;26.940;2022-09-16T15:18:37;98156.50;;;28.37;50.54
40872;BME280;26591;43.264;26.940;2022-09-16T15:21:09;98153.19;;;27.98;49.20
40872;BME280;26591;43.264;26.940;2022-09-16T15:23:37;98154.13;;;28.07;48.82
40872;BME280;26591;43.264;26.940;2022-09-16T15:26:23;98165.31;;;27.92;48.87
40872;BME280;26591;43.264;26.940;2022-09-16T15:28:59;98149.50;;;27.80;48.15
40872;BME280;26591;43.264;26.940;2022-09-16T15:31:39;98133.78;;;27.77;47.65
40872;BME280;26591;43.264;26.940;2022-09-16T15:36:48;98153.50;;;27.82;48.14
40872;BME280;26591;43.264;26.940;2022-09-16T15:39:33;98137.19;;;27.82;47.69
40872;BME280;26591;43.264;26.940;2022-09-16T15:44:55;98145.25;;;27.74;47.19
40872;BME280;26591;43.264;26.940;2022-09-16T15:47:31;98126.72;;;27.48;47.71
40872;BME280;26591;43.264;26.940;2022-09-16T15:50:09;98135.88;;;27.66;47.11
40872;BME280;26591;43.264;26.940;2022-09-16T15:53:00;98133.28;;;27.61;46.62
40872;BME280;26591;43.264;26.940;2022-09-16T15:55:40;98129.03;;;27.54;47.06
40872;BME280;26591;43.264;26.940;2022-09-16T15:58:16;98152.28;;;27.47;48.01
40872;BME280;26591;43.264;26.940;2022-09-16T16:01:02;98162.59;;;27.45;47.42
40872;BME280;26591;43.264;26.940;2022-09-16T16:06:13;98146.44;;;27.53;46.08
40872;BME280;26591;43.264;26.940;2022-09-16T16:08:45;98148.97;;;27.78;45.58
40872;BME280;26591;43.264;26.940;2022-09-16T16:11:16;98135.59;;;27.81;45.79
40872;BME280;26591;43.264;26.940;2022-09-16T16:13:42;98128.03;;;27.92;45.41
40872;BME280;26591;43.264;26.940;2022-09-16T16:16:08;98142.63;;;27.96;44.95
40872;BME280;26591;43.264;26.940;2022-09-16T16:18:35;98127.34;;;27.86;46.26
40872;BME280;26591;43.264;26.940;2022-09-16T16:21:06;98134.38;;;27.87;46.19
40872;BME280;26591;43.264;26.940;2022-09-16T16:23:33;98141.81;;;27.96;45.49
40872;BME280;26591;43.264;26.940;2022-09-16T16:25:58;98148.97;;;28.06;45.33
40872;BME280;26591;43.264;26.940;2022-09-16T16:28:24;98134.38;;;27.87;45.08
40872;BME280;26591;43.264;26.940;2022-09-16T16:30:49;98124.94;;;27.85;44.07
40872;BME280;26591;43.264;26.940;2022-09-16T16:33:15;98128.16;;;27.73;44.18
40872;BME280;26591;43.264;26.940;2022-09-16T16:35:40;98128.75;;;27.84;44.23